Weather at Zürich Airport

Public forecast

Using degrees Celsius for public forecast. Weather courtesy of forecast.io.

Current aviation weather report (METAR) for Zürich Airport

Retrieved 2021/01/26 07:20 UTC (0 seconds ago):

LSZH 260720Z 22005KT 9999 FEW035 BKN052 M02/M05 Q1020 R88/29//// NOSIG

Aviation forecast (TAF) for Zürich Airport

Retrieved 2021/01/26 06:39 UTC (39 minutes ago):

TAF TAF LSZH 260525Z 2606/2712 25008KT 9999 FEW030 TX02/2614Z TNM02/2624Z TNM03/2703Z BECMG 2619/2621 17003KT CAVOK BECMG 2702/2704 9999 BKN050 TEMPO 2705/2707 -SN TEMPO 2707/2711 2500 -SN BKN008